createdAt,value
2018-10-17T00:00:06.315Z,16.32
2018-10-17T00:02:34.435Z,16.12
2018-10-17T00:05:02.546Z,15.70
2018-10-17T00:07:30.636Z,15.48
2018-10-17T00:09:58.723Z,15.05
2018-10-17T00:12:26.945Z,14.73
2018-10-17T00:14:55.017Z,14.55
2018-10-17T00:17:23.141Z,14.44
2018-10-17T00:19:51.252Z,14.37
2018-10-17T00:22:19.371Z,14.28
2018-10-17T00:24:47.515Z,14.25
2018-10-17T00:27:15.597Z,14.27
2018-10-17T00:29:43.712Z,14.23
2018-10-17T00:32:11.784Z,14.13
2018-10-17T00:34:39.876Z,14.21
2018-10-17T00:37:08.002Z,14.31
2018-10-17T00:39:36.095Z,14.31
2018-10-17T00:42:04.244Z,14.25
2018-10-17T00:44:32.362Z,14.08
2018-10-17T00:47:00.461Z,13.99
2018-10-17T00:49:28.528Z,13.94
2018-10-17T00:51:56.597Z,13.88
2018-10-17T00:54:24.682Z,13.74
2018-10-17T00:56:52.763Z,13.95
2018-10-17T00:59:20.850Z,13.98
2018-10-17T01:01:48.942Z,13.97
2018-10-17T01:04:16.991Z,13.82
2018-10-17T01:06:45.131Z,13.71
2018-10-17T01:09:14.113Z,13.76
2018-10-17T01:11:42.328Z,13.83
2018-10-17T01:14:10.835Z,13.83
2018-10-17T01:16:38.919Z,13.90
2018-10-17T01:19:07.341Z,13.87
2018-10-17T01:21:35.956Z,13.74
2018-10-17T01:24:04.187Z,13.37
2018-10-17T01:26:32.600Z,12.99
2018-10-17T01:29:00.863Z,12.86
2018-10-17T01:31:29.011Z,12.77
2018-10-17T01:33:57.207Z,12.61
2018-10-17T01:36:25.325Z,12.60
2018-10-17T01:38:53.455Z,12.70
2018-10-17T01:41:21.668Z,12.82
2018-10-17T01:43:49.759Z,12.70
2018-10-17T01:46:17.885Z,12.67
2018-10-17T01:48:45.958Z,12.66
2018-10-17T01:51:14.047Z,12.61
2018-10-17T01:53:42.131Z,12.77
2018-10-17T01:56:10.210Z,12.87
2018-10-17T01:58:38.315Z,12.99
2018-10-17T02:01:06.398Z,13.03
2018-10-17T02:03:34.477Z,13.00
2018-10-17T02:06:02.578Z,12.86
2018-10-17T02:08:30.648Z,12.71
2018-10-17T02:10:58.738Z,12.53
2018-10-17T02:13:26.803Z,12.58
2018-10-17T02:15:54.871Z,12.69
2018-10-17T02:18:22.952Z,12.80
2018-10-17T02:20:51.360Z,12.89
2018-10-17T02:23:19.515Z,12.89
2018-10-17T02:25:47.611Z,12.77
2018-10-17T02:28:15.710Z,12.75
2018-10-17T02:30:43.773Z,12.57
2018-10-17T02:33:11.840Z,12.43
2018-10-17T02:35:39.913Z,12.50
2018-10-17T02:38:08.015Z,12.50
2018-10-17T02:40:36.121Z,12.57
2018-10-17T02:43:04.303Z,12.62
2018-10-17T02:45:32.303Z,12.65
2018-10-17T02:48:00.365Z,12.59
2018-10-17T02:50:28.443Z,12.42
2018-10-17T02:52:56.565Z,12.27
2018-10-17T02:55:24.607Z,12.16
2018-10-17T02:57:52.678Z,12.09
2018-10-17T03:00:20.742Z,12.03
2018-10-17T03:02:48.832Z,12.01
2018-10-17T03:05:17.090Z,11.89
2018-10-17T03:07:45.048Z,11.73
2018-10-17T03:10:13.150Z,11.62
2018-10-17T03:12:41.315Z,11.61
2018-10-17T03:15:09.663Z,11.66
2018-10-17T03:17:37.739Z,11.74
2018-10-17T03:20:07.484Z,11.87
2018-10-17T03:22:35.575Z,11.88
2018-10-17T03:25:03.755Z,11.81
2018-10-17T03:27:31.872Z,11.61
2018-10-17T03:29:59.964Z,11.42
2018-10-17T03:32:28.070Z,11.32
2018-10-17T03:34:56.213Z,11.17
2018-10-17T03:37:24.296Z,11.11
2018-10-17T03:39:52.378Z,11.17
2018-10-17T03:42:20.496Z,11.08
2018-10-17T03:44:48.661Z,10.99
2018-10-17T03:47:16.850Z,10.99
2018-10-17T03:49:44.962Z,10.99
2018-10-17T03:52:12.992Z,11.03
2018-10-17T03:54:41.095Z,11.07
2018-10-17T03:57:09.195Z,11.27
2018-10-17T03:59:37.489Z,11.28
2018-10-17T04:02:05.407Z,11.24
2018-10-17T04:04:33.513Z,11.21
2018-10-17T04:07:01.618Z,11.25
2018-10-17T04:09:30.183Z,11.27
2018-10-17T04:11:58.315Z,11.26
2018-10-17T04:14:26.398Z,11.35
2018-10-17T04:16:54.468Z,11.43
2018-10-17T04:19:22.578Z,11.52
2018-10-17T04:21:50.652Z,11.55
2018-10-17T04:24:18.735Z,11.56
2018-10-17T04:26:47.232Z,11.48
2018-10-17T04:29:15.444Z,11.30
2018-10-17T04:31:43.383Z,11.07
2018-10-17T04:34:11.457Z,10.82
2018-10-17T04:36:39.541Z,10.65
2018-10-17T04:39:09.275Z,10.50
2018-10-17T04:41:37.358Z,10.46
2018-10-17T04:44:05.862Z,10.45
2018-10-17T04:46:33.976Z,10.35
2018-10-17T04:49:23.591Z,10.31
2018-10-17T04:51:51.862Z,10.26
2018-10-17T04:54:20.015Z,10.26
2018-10-17T04:56:48.088Z,10.35
2018-10-17T04:59:16.296Z,10.34
2018-10-17T05:01:44.701Z,10.44
2018-10-17T05:04:12.795Z,10.44
2018-10-17T05:06:41.226Z,10.37
2018-10-17T05:09:10.674Z,10.36
2018-10-17T05:11:39.216Z,10.49
2018-10-17T05:14:13.968Z,10.54
2018-10-17T05:16:42.180Z,10.55
2018-10-17T05:19:10.352Z,10.53
2018-10-17T05:21:38.431Z,10.70
2018-10-17T05:24:06.543Z,10.58
2018-10-17T05:26:34.633Z,10.42
2018-10-17T05:29:02.747Z,10.45
2018-10-17T05:31:30.806Z,10.51
2018-10-17T05:33:58.884Z,10.50
2018-10-17T05:36:26.984Z,10.38
2018-10-17T05:38:55.140Z,10.24
2018-10-17T05:41:23.215Z,10.15
2018-10-17T05:43:51.329Z,10.05
2018-10-17T05:46:19.427Z,10.08
2018-10-17T05:48:47.679Z,10.14
2018-10-17T05:51:15.824Z,10.19
2018-10-17T05:53:43.907Z,10.07
2018-10-17T05:56:12.019Z,10.02
2018-10-17T05:58:40.087Z,9.98
2018-10-17T06:01:08.251Z,9.92
2018-10-17T06:03:36.247Z,9.93
2018-10-17T06:06:04.422Z,9.96
2018-10-17T06:08:32.721Z,9.91
2018-10-17T06:11:00.867Z,9.93
2018-10-17T06:13:28.944Z,9.97
2018-10-17T06:15:57.078Z,10.04
2018-10-17T06:18:25.178Z,10.03
2018-10-17T06:20:53.281Z,10.01
2018-10-17T06:23:21.363Z,10.01
2018-10-17T06:25:49.522Z,10.09
2018-10-17T06:28:17.588Z,10.23
2018-10-17T06:30:45.727Z,10.29
2018-10-17T06:33:13.767Z,10.38
2018-10-17T06:35:41.912Z,10.65
2018-10-17T06:38:09.983Z,10.83
2018-10-17T06:40:38.054Z,10.89
2018-10-17T06:43:06.399Z,10.92
2018-10-17T06:45:34.487Z,10.89
2018-10-17T06:48:02.636Z,10.93
2018-10-17T06:50:30.757Z,11.07
2018-10-17T06:52:58.848Z,11.15
2018-10-17T06:55:26.993Z,11.16
2018-10-17T06:57:55.124Z,11.23
2018-10-17T07:00:23.207Z,11.22
2018-10-17T07:02:51.308Z,11.42
2018-10-17T07:05:19.444Z,11.47
2018-10-17T07:07:47.533Z,11.56
2018-10-17T07:10:15.647Z,11.66
2018-10-17T07:12:43.722Z,11.85
2018-10-17T07:15:11.872Z,12.07
2018-10-17T07:17:39.946Z,12.24
2018-10-17T07:20:08.761Z,12.44
2018-10-17T07:22:36.983Z,12.67
2018-10-17T07:25:05.262Z,12.72
2018-10-17T07:27:33.351Z,12.88
2018-10-17T07:30:01.442Z,13.00
2018-10-17T07:32:29.527Z,13.15
2018-10-17T07:34:57.612Z,13.24
2018-10-17T07:37:25.711Z,13.42
2018-10-17T07:39:53.802Z,13.53
2018-10-17T07:42:21.888Z,13.67
2018-10-17T07:44:49.978Z,13.72
2018-10-17T07:47:18.127Z,13.87
2018-10-17T07:49:46.192Z,13.96
2018-10-17T07:52:14.361Z,14.08
2018-10-17T07:54:42.435Z,14.12
2018-10-17T07:57:10.505Z,14.25
2018-10-17T07:59:38.663Z,14.43
2018-10-17T08:02:06.682Z,14.48
2018-10-17T08:04:34.759Z,14.56
2018-10-17T08:07:02.881Z,14.69
2018-10-17T08:09:30.944Z,14.71
2018-10-17T08:11:59.099Z,14.92
2018-10-17T08:14:27.127Z,15.06
2018-10-17T08:16:55.214Z,15.03
2018-10-17T08:19:23.325Z,15.12
2018-10-17T08:21:51.398Z,15.19
2018-10-17T08:24:19.516Z,15.20
2018-10-17T08:26:47.613Z,15.26
2018-10-17T08:29:15.839Z,15.30
2018-10-17T08:31:44.019Z,15.52
2018-10-17T08:34:12.121Z,15.56
2018-10-17T08:36:40.538Z,15.62
2018-10-17T08:39:09.321Z,15.64
2018-10-17T08:41:37.428Z,15.62
2018-10-17T08:44:05.588Z,15.76
2018-10-17T08:46:33.623Z,15.86
2018-10-17T08:49:01.703Z,15.95
2018-10-17T08:51:36.319Z,16.07
2018-10-17T08:54:04.852Z,16.18
2018-10-17T08:56:33.384Z,16.23
2018-10-17T08:59:01.475Z,16.23
2018-10-17T09:01:29.584Z,16.23
2018-10-17T09:03:57.656Z,16.38
2018-10-17T09:06:25.820Z,16.41
2018-10-17T09:08:53.927Z,16.58
2018-10-17T09:11:22.057Z,16.73
2018-10-17T09:13:50.227Z,16.80
2018-10-17T09:16:18.475Z,16.74
2018-10-17T09:18:46.415Z,16.84
2018-10-17T09:21:14.884Z,16.87
2018-10-17T09:23:42.602Z,16.85
2018-10-17T09:26:10.747Z,16.94
2018-10-17T09:28:38.938Z,17.07
2018-10-17T09:31:07.206Z,17.21
2018-10-17T09:33:35.368Z,17.21
2018-10-17T09:36:03.627Z,17.21
2018-10-17T09:38:31.725Z,17.34
2018-10-17T09:40:59.820Z,17.36
2018-10-17T09:43:27.965Z,17.31
2018-10-17T09:45:56.100Z,17.42
2018-10-17T09:48:24.152Z,17.53
2018-10-17T09:50:52.242Z,17.55
2018-10-17T09:53:20.342Z,17.66
2018-10-17T09:55:48.696Z,17.72
2018-10-17T09:58:16.916Z,17.74
2018-10-17T10:00:50.193Z,17.76
2018-10-17T10:03:18.469Z,17.86
2018-10-17T10:05:46.531Z,17.98
2018-10-17T10:08:14.616Z,18.13
2018-10-17T10:10:42.808Z,18.16
2018-10-17T10:13:10.956Z,18.15
2018-10-17T10:15:39.064Z,18.25
2018-10-17T10:18:07.183Z,18.42
2018-10-17T10:20:35.276Z,18.38
2018-10-17T10:23:03.428Z,18.43
2018-10-17T10:25:31.452Z,18.39
2018-10-17T10:27:59.566Z,18.50
2018-10-17T10:30:27.719Z,18.44
2018-10-17T10:32:55.748Z,18.59
2018-10-17T10:35:23.869Z,18.77
2018-10-17T10:37:51.987Z,18.60
2018-10-17T10:40:20.364Z,18.70
2018-10-17T10:42:49.035Z,18.58
2018-10-17T10:45:17.389Z,18.62
2018-10-17T10:47:45.294Z,18.97
2018-10-17T10:50:13.411Z,18.99
2018-10-17T10:52:41.676Z,19.12
2018-10-17T10:55:09.696Z,19.17
2018-10-17T10:57:37.804Z,19.24
2018-10-17T11:00:06.939Z,19.32
2018-10-17T11:02:34.983Z,19.37
2018-10-17T11:05:03.112Z,19.38
2018-10-17T11:07:31.155Z,19.40
2018-10-17T11:09:59.227Z,19.61
2018-10-17T11:12:27.449Z,19.62
2018-10-17T11:14:55.729Z,19.69
2018-10-17T11:17:23.630Z,19.77
2018-10-17T11:19:51.719Z,19.80
2018-10-17T11:22:19.917Z,19.79
2018-10-17T11:24:48.007Z,19.75
2018-10-17T11:27:16.248Z,19.86
2018-10-17T11:29:44.313Z,20.02
2018-10-17T11:32:12.399Z,20.09
2018-10-17T11:34:40.860Z,20.06
2018-10-17T11:37:08.960Z,20.19
2018-10-17T11:39:37.299Z,20.23
2018-10-17T11:42:05.763Z,20.34
2018-10-17T11:44:33.859Z,20.40
2018-10-17T11:47:02.531Z,20.48
2018-10-17T11:49:30.515Z,20.59
2018-10-17T11:51:58.591Z,20.66
2018-10-17T11:54:27.132Z,20.74
2018-10-17T11:56:55.219Z,20.76
2018-10-17T11:59:23.405Z,20.62
2018-10-17T12:01:51.356Z,20.67
2018-10-17T12:04:19.863Z,20.79
2018-10-17T12:06:48.553Z,20.82
2018-10-17T12:09:16.828Z,20.90
2018-10-17T12:11:44.800Z,20.93
2018-10-17T12:14:12.800Z,20.89
2018-10-17T12:16:40.868Z,20.94
2018-10-17T12:19:09.177Z,21.01
2018-10-17T12:21:37.243Z,21.06
2018-10-17T12:24:05.542Z,21.23
2018-10-17T12:26:33.828Z,21.30
2018-10-17T12:29:01.912Z,21.30
2018-10-17T12:31:29.981Z,21.44
2018-10-17T12:33:58.073Z,21.55
2018-10-17T12:36:26.164Z,21.29
2018-10-17T12:38:54.318Z,21.34
2018-10-17T12:41:22.581Z,21.49
2018-10-17T12:43:50.788Z,21.72
2018-10-17T12:46:19.093Z,21.78
2018-10-17T12:48:47.248Z,21.75
2018-10-17T12:51:15.348Z,21.83
2018-10-17T12:53:43.524Z,21.87
2018-10-17T12:56:11.700Z,21.82
2018-10-17T12:58:39.816Z,21.91
2018-10-17T13:01:07.985Z,21.89
2018-10-17T13:03:36.088Z,21.80
2018-10-17T13:06:04.192Z,21.87
2018-10-17T13:08:35.268Z,21.89
2018-10-17T13:11:03.873Z,21.82
2018-10-17T13:13:31.945Z,21.94
2018-10-17T13:16:00.055Z,22.02
2018-10-17T13:18:28.185Z,22.00
2018-10-17T13:20:56.337Z,22.04
2018-10-17T13:23:24.444Z,21.98
2018-10-17T13:25:52.543Z,21.89
2018-10-17T13:28:20.655Z,21.84
2018-10-17T13:30:49.037Z,21.95
2018-10-17T13:33:17.216Z,21.91
2018-10-17T13:35:45.335Z,21.89
2018-10-17T13:38:13.439Z,21.87
2018-10-17T13:40:41.554Z,21.93
2018-10-17T13:43:09.757Z,21.95
2018-10-17T13:45:37.825Z,22.02
2018-10-17T13:48:05.998Z,22.19
2018-10-17T13:50:34.120Z,22.23
2018-10-17T13:53:30.237Z,22.20
2018-10-17T13:55:58.552Z,22.14
2018-10-17T13:58:26.908Z,22.19
2018-10-17T14:00:54.979Z,22.18
2018-10-17T14:03:23.077Z,22.24
2018-10-17T14:05:51.279Z,22.26
2018-10-17T14:08:20.060Z,22.21
2018-10-17T14:10:48.341Z,22.28
2018-10-17T14:13:16.767Z,22.18
2018-10-17T14:15:45.040Z,22.18
2018-10-17T14:18:13.391Z,22.20
2018-10-17T14:20:41.525Z,22.22
2018-10-17T14:23:10.289Z,22.16
2018-10-17T14:25:38.368Z,22.11
2018-10-17T14:28:06.593Z,22.08
2018-10-17T14:30:34.863Z,22.24
2018-10-17T14:33:03.060Z,22.25
2018-10-17T14:35:31.157Z,22.26
2018-10-17T14:37:59.527Z,22.23
2018-10-17T14:40:27.452Z,22.33
2018-10-17T14:42:55.648Z,22.25
2018-10-17T14:45:23.815Z,22.29
2018-10-17T14:47:52.306Z,22.27
2018-10-17T14:50:20.596Z,22.38
2018-10-17T14:52:49.804Z,22.52
2018-10-17T14:55:17.913Z,22.49
2018-10-17T14:57:46.714Z,22.62
2018-10-17T15:00:16.411Z,22.56
2018-10-17T15:02:45.021Z,22.51
2018-10-17T15:05:13.256Z,22.49
2018-10-17T15:07:42.384Z,22.53
2018-10-17T15:10:11.530Z,22.66
2018-10-17T15:12:39.620Z,22.69
2018-10-17T15:15:09.963Z,22.61
2018-10-17T15:17:38.070Z,22.58
2018-10-17T15:20:08.182Z,22.58
2018-10-17T15:22:36.862Z,22.49
2018-10-17T15:25:05.620Z,22.55
2018-10-17T15:27:33.855Z,22.60
2018-10-17T15:30:02.363Z,22.69
2018-10-17T15:32:30.566Z,22.70
2018-10-17T15:34:59.671Z,22.60
2018-10-17T15:37:27.951Z,22.60
2018-10-17T15:39:56.126Z,22.40
2018-10-17T15:42:24.340Z,22.39
2018-10-17T15:44:52.430Z,22.47
2018-10-17T15:47:20.513Z,22.48
2018-10-17T15:49:48.591Z,22.46
2018-10-17T15:52:16.695Z,22.47
2018-10-17T15:54:44.847Z,22.41
2018-10-17T15:57:13.029Z,22.35
2018-10-17T15:59:41.012Z,22.19
2018-10-17T16:02:09.115Z,21.98
2018-10-17T16:04:37.233Z,21.96
2018-10-17T16:07:05.683Z,21.78
2018-10-17T16:09:33.769Z,21.50
2018-10-17T16:12:01.876Z,21.29
2018-10-17T16:14:29.948Z,21.19
2018-10-17T16:16:58.090Z,20.95
2018-10-17T16:19:26.211Z,20.90
2018-10-17T16:21:54.533Z,20.76
2018-10-17T16:24:22.629Z,20.74
2018-10-17T16:26:50.699Z,20.66
2018-10-17T16:29:18.799Z,20.54
2018-10-17T16:31:46.874Z,20.42
2018-10-17T16:34:14.949Z,20.32
2018-10-17T16:36:43.040Z,20.25
2018-10-17T16:39:12.255Z,20.14
2018-10-17T16:41:40.489Z,19.78
2018-10-17T16:44:09.224Z,19.63
2018-10-17T16:46:37.797Z,19.59
2018-10-17T16:49:06.219Z,19.53
2018-10-17T16:51:34.354Z,19.43
2018-10-17T16:54:02.512Z,19.39
2018-10-17T16:56:30.555Z,19.33
2018-10-17T16:58:58.636Z,19.25
2018-10-17T17:01:26.728Z,19.14
2018-10-17T17:03:54.850Z,19.05
2018-10-17T17:06:22.975Z,18.95
2018-10-17T17:08:51.061Z,18.82
2018-10-17T17:11:19.183Z,18.67
2018-10-17T17:13:47.280Z,18.61
2018-10-17T17:16:15.463Z,18.49
2018-10-17T17:18:43.492Z,18.42
2018-10-17T17:21:11.652Z,18.32
2018-10-17T17:23:39.751Z,18.20
2018-10-17T17:26:07.844Z,18.19
2018-10-17T17:28:35.998Z,18.04
2018-10-17T17:31:04.064Z,18.00
2018-10-17T17:33:32.218Z,17.94
2018-10-17T17:36:00.354Z,17.87
2018-10-17T17:38:28.374Z,17.80
2018-10-17T17:40:56.469Z,17.73
2018-10-17T17:43:24.754Z,17.62
2018-10-17T17:45:52.869Z,17.57
2018-10-17T17:48:20.932Z,17.47
2018-10-17T17:50:49.002Z,17.39
2018-10-17T17:53:17.128Z,17.10
2018-10-17T17:55:45.298Z,17.02
2018-10-17T17:58:13.433Z,16.99
2018-10-17T18:00:41.447Z,16.96
2018-10-17T18:03:09.549Z,16.96
2018-10-17T18:05:37.623Z,16.91
2018-10-17T18:08:05.949Z,16.87
2018-10-17T18:10:35.719Z,16.79
2018-10-17T18:13:05.350Z,16.61
2018-10-17T18:15:33.680Z,16.61
2018-10-17T18:18:02.183Z,16.42
2018-10-17T18:20:32.572Z,16.24
2018-10-17T18:23:01.106Z,16.12
2018-10-17T18:25:29.253Z,16.17
2018-10-17T18:28:01.216Z,16.20
2018-10-17T18:30:30.750Z,16.15
2018-10-17T18:33:02.185Z,16.12
2018-10-17T18:35:32.801Z,16.10
2018-10-17T18:38:08.418Z,16.06
2018-10-17T18:40:39.228Z,16.05
2018-10-17T18:43:08.601Z,16.08
2018-10-17T18:45:37.785Z,15.97
2018-10-17T18:48:07.947Z,15.83
2018-10-17T18:50:39.183Z,15.75
2018-10-17T18:53:07.501Z,15.64
2018-10-17T18:55:36.501Z,15.60
2018-10-17T18:58:06.892Z,15.50
2018-10-17T19:00:35.414Z,15.47
2018-10-17T19:03:04.101Z,15.44
2018-10-17T19:05:34.812Z,15.31
2018-10-17T19:08:07.112Z,15.33
2018-10-17T19:10:36.421Z,15.33
2018-10-17T19:13:05.411Z,15.33
2018-10-17T19:15:35.311Z,15.35
2018-10-17T19:18:03.613Z,15.36
2018-10-17T19:20:33.423Z,15.32
2018-10-17T19:23:01.796Z,15.25
2018-10-17T19:25:31.394Z,15.26
2018-10-17T19:28:01.969Z,15.17
2018-10-17T19:33:09.591Z,14.94
2018-10-17T19:35:38.575Z,14.91
2018-10-17T19:38:08.088Z,14.88
2018-10-17T19:40:39.014Z,14.83
2018-10-17T19:43:07.293Z,14.80
2018-10-17T19:45:38.492Z,14.73
2018-10-17T19:48:07.972Z,14.71
2018-10-17T19:50:37.377Z,14.73
2018-10-17T19:53:08.569Z,14.73
2018-10-17T19:55:36.913Z,14.70
2018-10-17T19:58:05.503Z,14.64
2018-10-17T20:00:36.726Z,14.63
2018-10-17T20:03:06.176Z,14.63
2018-10-17T20:05:34.986Z,14.65
2018-10-17T20:08:05.856Z,14.59
2018-10-17T20:10:34.416Z,14.57
2018-10-17T20:13:08.536Z,14.58
2018-10-17T20:15:39.921Z,14.57
2018-10-17T20:18:09.038Z,14.50
2018-10-17T20:20:37.345Z,14.50
2018-10-17T20:30:01.890Z,14.45
2018-10-17T20:32:31.334Z,14.33
2018-10-17T20:34:59.710Z,14.30
2018-10-17T20:40:36.053Z,14.16
2018-10-17T20:43:04.332Z,14.03
2018-10-17T20:45:34.105Z,14.07
2018-10-17T20:48:03.510Z,14.13
2018-10-17T20:50:32.299Z,14.13
2018-10-17T20:53:01.613Z,14.11
2018-10-17T20:55:30.552Z,14.11
2018-10-17T20:58:01.006Z,13.95
2018-10-17T21:00:31.838Z,13.83
2018-10-17T21:03:00.195Z,13.76
2018-10-17T21:05:28.741Z,13.77
2018-10-17T21:08:01.231Z,13.79
2018-10-17T21:10:30.108Z,13.74
2018-10-17T21:12:58.672Z,13.84
2018-10-17T21:15:27.206Z,13.80
2018-10-17T21:18:05.965Z,13.65
2018-10-17T21:20:39.926Z,13.59
2018-10-17T21:23:10.316Z,13.61
2018-10-17T21:25:39.612Z,13.49
2018-10-17T21:28:08.485Z,13.39
2018-10-17T21:30:38.604Z,13.33
2018-10-17T21:33:08.349Z,13.31
2018-10-17T21:35:39.321Z,13.30
2018-10-17T21:40:59.871Z,13.14
2018-10-17T21:43:29.191Z,13.16
2018-10-17T21:46:01.706Z,13.16
2018-10-17T21:48:38.525Z,13.14
2018-10-17T21:51:07.638Z,13.15
2018-10-17T21:54:43.822Z,13.07
2018-10-17T21:57:12.468Z,12.84
2018-10-17T21:59:41.377Z,12.81
2018-10-17T22:02:09.720Z,12.81
2018-10-17T22:04:41.575Z,12.78
2018-10-17T22:07:10.223Z,12.75
2018-10-17T22:09:43.650Z,12.68
2018-10-17T22:12:12.054Z,12.70
2018-10-17T22:14:40.704Z,12.76
2018-10-17T22:17:09.442Z,12.81
2018-10-17T22:19:38.658Z,12.72
2018-10-17T22:22:07.673Z,12.54
2018-10-17T22:24:35.768Z,12.72
2018-10-17T22:27:03.839Z,12.79
2018-10-17T22:29:31.911Z,12.75
2018-10-17T22:32:00.010Z,12.70
2018-10-17T22:34:28.109Z,12.75
2018-10-17T22:36:56.175Z,12.75
2018-10-17T22:39:24.286Z,12.57
2018-10-17T22:41:52.363Z,12.42
2018-10-17T22:44:20.436Z,12.36
2018-10-17T22:46:48.523Z,12.32
2018-10-17T22:49:16.687Z,12.38
2018-10-17T22:51:44.768Z,12.53
2018-10-17T22:54:12.843Z,12.51
2018-10-17T22:56:40.919Z,12.38
2018-10-17T22:59:09.067Z,12.23
2018-10-17T23:01:37.694Z,12.15
2018-10-17T23:04:06.527Z,12.04
2018-10-17T23:06:34.627Z,12.01
2018-10-17T23:09:02.737Z,12.11
2018-10-17T23:11:30.856Z,12.09
2018-10-17T23:13:58.981Z,12.07
2018-10-17T23:16:27.064Z,12.03
2018-10-17T23:18:55.180Z,12.01
2018-10-17T23:21:23.268Z,12.05
2018-10-17T23:23:51.350Z,12.04
2018-10-17T23:26:19.465Z,11.99
2018-10-17T23:28:47.546Z,11.88
2018-10-17T23:31:15.640Z,11.81
2018-10-17T23:33:43.722Z,11.78
2018-10-17T23:36:11.803Z,11.83
2018-10-17T23:38:39.877Z,11.91
2018-10-17T23:41:07.983Z,11.91
2018-10-17T23:43:36.116Z,11.83
2018-10-17T23:46:04.248Z,11.74
2018-10-17T23:48:32.346Z,11.66
2018-10-17T23:51:00.475Z,11.66
2018-10-17T23:53:28.866Z,11.61
2018-10-17T23:55:56.967Z,11.57
2018-10-17T23:58:25.032Z,11.55
